sensor_id;sensor_type;location;lat;lon;timestamp;P1;durP1;ratioP1;P2;durP2;ratioP2
54917;SDS011;40818;50.562;7.454;2024-02-26T00:00:41;0.82;;;0.10;;
54917;SDS011;40818;50.562;7.454;2024-02-26T00:10:46;0.40;;;0.10;;
54917;SDS011;40818;50.562;7.454;2024-02-26T00:20:52;0.65;;;0.20;;
54917;SDS011;40818;50.562;7.454;2024-02-26T00:30:56;0.30;;;0.10;;
54917;SDS011;40818;50.562;7.454;2024-02-26T00:41:02;0.70;;;0.10;;
54917;SDS011;40818;50.562;7.454;2024-02-26T00:51:05;0.57;;;0.10;;
54917;SDS011;40818;50.562;7.454;2024-02-26T01:01:11;0.40;;;0.08;;
54917;SDS011;40818;50.562;7.454;2024-02-26T01:11:14;0.43;;;0.10;;
54917;SDS011;40818;50.562;7.454;2024-02-26T01:21:20;0.47;;;0.10;;
54917;SDS011;40818;50.562;7.454;2024-02-26T01:31:24;0.45;;;0.10;;
54917;SDS011;40818;50.562;7.454;2024-02-26T01:41:30;0.30;;;0.10;;
54917;SDS011;40818;50.562;7.454;2024-02-26T01:51:33;0.30;;;0.03;;
54917;SDS011;40818;50.562;7.454;2024-02-26T02:01:41;0.20;;;0.00;;
54917;SDS011;40818;50.562;7.454;2024-02-26T02:11:48;2.15;;;0.00;;
54917;SDS011;40818;50.562;7.454;2024-02-26T02:21:54;0.50;;;0.10;;
54917;SDS011;40818;50.562;7.454;2024-02-26T02:31:57;0.28;;;0.00;;
54917;SDS011;40818;50.562;7.454;2024-02-26T02:42:03;0.68;;;0.00;;
54917;SDS011;40818;50.562;7.454;2024-02-26T02:52:07;0.40;;;0.03;;
54917;SDS011;40818;50.562;7.454;2024-02-26T03:02:13;1.23;;;0.00;;
54917;SDS011;40818;50.562;7.454;2024-02-26T03:12:16;0.32;;;0.10;;
54917;SDS011;40818;50.562;7.454;2024-02-26T03:22:23;0.60;;;0.08;;
54917;SDS011;40818;50.562;7.454;2024-02-26T03:32:26;0.57;;;0.10;;
54917;SDS011;40818;50.562;7.454;2024-02-26T03:42:32;0.25;;;0.05;;
54917;SDS011;40818;50.562;7.454;2024-02-26T03:52:35;0.52;;;0.10;;
54917;SDS011;40818;50.562;7.454;2024-02-26T04:02:41;0.57;;;0.10;;
54917;SDS011;40818;50.562;7.454;2024-02-26T04:12:45;0.50;;;0.10;;
54917;SDS011;40818;50.562;7.454;2024-02-26T04:22:51;0.57;;;0.20;;
54917;SDS011;40818;50.562;7.454;2024-02-26T04:32:54;0.60;;;0.20;;
54917;SDS011;40818;50.562;7.454;2024-02-26T04:43:00;0.60;;;0.20;;
54917;SDS011;40818;50.562;7.454;2024-02-26T04:53:04;1.95;;;0.32;;
54917;SDS011;40818;50.562;7.454;2024-02-26T05:03:09;1.10;;;0.30;;
54917;SDS011;40818;50.562;7.454;2024-02-26T05:13:15;0.70;;;0.25;;
54917;SDS011;40818;50.562;7.454;2024-02-26T05:23:22;1.10;;;0.30;;
54917;SDS011;40818;50.562;7.454;2024-02-26T05:33:25;1.30;;;0.30;;
54917;SDS011;40818;50.562;7.454;2024-02-26T05:43:31;1.75;;;0.20;;
54917;SDS011;40818;50.562;7.454;2024-02-26T05:53:35;1.10;;;0.30;;
54917;SDS011;40818;50.562;7.454;2024-02-26T06:03:41;1.48;;;0.40;;
54917;SDS011;40818;50.562;7.454;2024-02-26T06:13:44;4.90;;;0.50;;
54917;SDS011;40818;50.562;7.454;2024-02-26T06:23:50;2.70;;;0.30;;
54917;SDS011;40818;50.562;7.454;2024-02-26T06:33:54;1.17;;;0.30;;
54917;SDS011;40818;50.562;7.454;2024-02-26T06:44:00;1.20;;;0.40;;
54917;SDS011;40818;50.562;7.454;2024-02-26T06:54:03;1.83;;;0.50;;
54917;SDS011;40818;50.562;7.454;2024-02-26T07:04:10;1.27;;;0.40;;
54917;SDS011;40818;50.562;7.454;2024-02-26T07:14:13;1.27;;;0.32;;
54917;SDS011;40818;50.562;7.454;2024-02-26T07:24:19;1.48;;;0.45;;
54917;SDS011;40818;50.562;7.454;2024-02-26T07:34:23;1.55;;;0.40;;
54917;SDS011;40818;50.562;7.454;2024-02-26T07:44:32;1.85;;;0.50;;
54917;SDS011;40818;50.562;7.454;2024-02-26T07:54:36;1.38;;;0.40;;
54917;SDS011;40818;50.562;7.454;2024-02-26T08:04:42;1.33;;;0.40;;
54917;SDS011;40818;50.562;7.454;2024-02-26T08:14:45;1.35;;;0.45;;
54917;SDS011;40818;50.562;7.454;2024-02-26T08:24:54;1.30;;;0.40;;
54917;SDS011;40818;50.562;7.454;2024-02-26T08:34:58;2.28;;;0.40;;
54917;SDS011;40818;50.562;7.454;2024-02-26T08:45:05;1.63;;;0.60;;
54917;SDS011;40818;50.562;7.454;2024-02-26T08:55:10;3.80;;;0.50;;
54917;SDS011;40818;50.562;7.454;2024-02-26T09:05:16;2.05;;;0.57;;
54917;SDS011;40818;50.562;7.454;2024-02-26T09:15:20;3.15;;;0.50;;
54917;SDS011;40818;50.562;7.454;2024-02-26T09:25:26;1.67;;;0.50;;
54917;SDS011;40818;50.562;7.454;2024-02-26T09:35:29;1.77;;;0.40;;
54917;SDS011;40818;50.562;7.454;2024-02-26T09:45:35;1.58;;;0.45;;
54917;SDS011;40818;50.562;7.454;2024-02-26T09:55:39;2.00;;;0.60;;
54917;SDS011;40818;50.562;7.454;2024-02-26T10:05:45;2.03;;;0.52;;
54917;SDS011;40818;50.562;7.454;2024-02-26T10:15:49;3.33;;;0.60;;
54917;SDS011;40818;50.562;7.454;2024-02-26T10:25:55;2.00;;;0.52;;
54917;SDS011;40818;50.562;7.454;2024-02-26T10:35:59;2.33;;;0.73;;
54917;SDS011;40818;50.562;7.454;2024-02-26T10:46:05;1.90;;;0.50;;
54917;SDS011;40818;50.562;7.454;2024-02-26T10:56:10;4.03;;;0.70;;
54917;SDS011;40818;50.562;7.454;2024-02-26T11:06:19;2.25;;;0.60;;
54917;SDS011;40818;50.562;7.454;2024-02-26T11:16:24;2.60;;;0.70;;
54917;SDS011;40818;50.562;7.454;2024-02-26T11:26:32;2.00;;;0.70;;
54917;SDS011;40818;50.562;7.454;2024-02-26T11:36:37;4.63;;;0.70;;
54917;SDS011;40818;50.562;7.454;2024-02-26T11:46:45;2.55;;;0.80;;
54917;SDS011;40818;50.562;7.454;2024-02-26T11:56:50;2.63;;;0.75;;
54917;SDS011;40818;50.562;7.454;2024-02-26T12:06:56;1.90;;;0.60;;
54917;SDS011;40818;50.562;7.454;2024-02-26T12:17:00;2.80;;;0.60;;
54917;SDS011;40818;50.562;7.454;2024-02-26T12:27:09;2.92;;;0.60;;
54917;SDS011;40818;50.562;7.454;2024-02-26T12:37:13;1.83;;;0.70;;
54917;SDS011;40818;50.562;7.454;2024-02-26T12:47:19;2.45;;;0.70;;
54917;SDS011;40818;50.562;7.454;2024-02-26T12:57:22;1.40;;;0.60;;
54917;SDS011;40818;50.562;7.454;2024-02-26T13:07:29;4.05;;;0.70;;
54917;SDS011;40818;50.562;7.454;2024-02-26T13:17:33;4.30;;;0.80;;
54917;SDS011;40818;50.562;7.454;2024-02-26T13:27:39;2.33;;;0.70;;
54917;SDS011;40818;50.562;7.454;2024-02-26T13:37:43;2.15;;;0.70;;
54917;SDS011;40818;50.562;7.454;2024-02-26T13:47:49;2.33;;;0.70;;
54917;SDS011;40818;50.562;7.454;2024-02-26T13:57:52;3.20;;;0.90;;
54917;SDS011;40818;50.562;7.454;2024-02-26T14:07:59;2.35;;;0.70;;
54917;SDS011;40818;50.562;7.454;2024-02-26T14:18:03;2.45;;;0.73;;
54917;SDS011;40818;50.562;7.454;2024-02-26T14:28:09;2.35;;;0.70;;
54917;SDS011;40818;50.562;7.454;2024-02-26T14:38:12;3.13;;;0.73;;
54917;SDS011;40818;50.562;7.454;2024-02-26T14:48:19;3.63;;;0.60;;
54917;SDS011;40818;50.562;7.454;2024-02-26T14:58:22;1.95;;;0.60;;
54917;SDS011;40818;50.562;7.454;2024-02-26T15:08:28;4.30;;;0.70;;
54917;SDS011;40818;50.562;7.454;2024-02-26T15:18:31;1.52;;;0.40;;
54917;SDS011;40818;50.562;7.454;2024-02-26T15:28:37;1.95;;;0.60;;
54917;SDS011;40818;50.562;7.454;2024-02-26T15:38:42;1.63;;;0.50;;
54917;SDS011;40818;50.562;7.454;2024-02-26T15:48:48;2.67;;;0.70;;
54917;SDS011;40818;50.562;7.454;2024-02-26T15:58:52;1.30;;;0.47;;
54917;SDS011;40818;50.562;7.454;2024-02-26T16:08:58;1.70;;;0.45;;
54917;SDS011;40818;50.562;7.454;2024-02-26T16:19:05;3.95;;;0.50;;
54917;SDS011;40818;50.562;7.454;2024-02-26T16:29:13;2.47;;;0.60;;
54917;SDS011;40818;50.562;7.454;2024-02-26T16:39:17;2.53;;;0.70;;
54917;SDS011;40818;50.562;7.454;2024-02-26T16:49:23;2.80;;;1.15;;
54917;SDS011;40818;50.562;7.454;2024-02-26T16:59:26;3.97;;;0.70;;
54917;SDS011;40818;50.562;7.454;2024-02-26T17:09:33;2.40;;;0.70;;
54917;SDS011;40818;50.562;7.454;2024-02-26T17:19:37;2.38;;;0.70;;
54917;SDS011;40818;50.562;7.454;2024-02-26T17:29:43;4.18;;;0.68;;
54917;SDS011;40818;50.562;7.454;2024-02-26T17:39:47;3.00;;;0.90;;
54917;SDS011;40818;50.562;7.454;2024-02-26T17:49:53;5.68;;;2.88;;
54917;SDS011;40818;50.562;7.454;2024-02-26T17:59:56;2.88;;;0.95;;
54917;SDS011;40818;50.562;7.454;2024-02-26T18:10:02;5.10;;;1.00;;
54917;SDS011;40818;50.562;7.454;2024-02-26T18:20:09;3.70;;;1.00;;
54917;SDS011;40818;50.562;7.454;2024-02-26T18:30:16;8.60;;;2.40;;
54917;SDS011;40818;50.562;7.454;2024-02-26T18:40:20;5.97;;;1.23;;
54917;SDS011;40818;50.562;7.454;2024-02-26T18:50:26;5.75;;;1.33;;
54917;SDS011;40818;50.562;7.454;2024-02-26T19:00:29;6.25;;;1.90;;
54917;SDS011;40818;50.562;7.454;2024-02-26T19:10:35;4.30;;;1.27;;
54917;SDS011;40818;50.562;7.454;2024-02-26T19:20:39;5.13;;;2.15;;
54917;SDS011;40818;50.562;7.454;2024-02-26T19:30:45;6.22;;;1.98;;
54917;SDS011;40818;50.562;7.454;2024-02-26T19:40:48;4.13;;;1.45;;
54917;SDS011;40818;50.562;7.454;2024-02-26T19:50:54;9.23;;;5.30;;
54917;SDS011;40818;50.562;7.454;2024-02-26T20:00:58;7.57;;;1.90;;
54917;SDS011;40818;50.562;7.454;2024-02-26T20:11:04;11.45;;;7.32;;
54917;SDS011;40818;50.562;7.454;2024-02-26T20:21:08;7.75;;;3.45;;
54917;SDS011;40818;50.562;7.454;2024-02-26T20:31:14;8.18;;;2.83;;
54917;SDS011;40818;50.562;7.454;2024-02-26T20:41:17;7.13;;;2.25;;
54917;SDS011;40818;50.562;7.454;2024-02-26T20:51:25;7.60;;;2.38;;
54917;SDS011;40818;50.562;7.454;2024-02-26T21:01:29;7.63;;;2.15;;
54917;SDS011;40818;50.562;7.454;2024-02-26T21:11:37;7.22;;;2.17;;
54917;SDS011;40818;50.562;7.454;2024-02-26T21:21:40;6.03;;;2.17;;
54917;SDS011;40818;50.562;7.454;2024-02-26T21:31:46;5.13;;;2.05;;
54917;SDS011;40818;50.562;7.454;2024-02-26T21:41:50;7.00;;;2.22;;
54917;SDS011;40818;50.562;7.454;2024-02-26T21:51:57;5.78;;;2.25;;
54917;SDS011;40818;50.562;7.454;2024-02-26T22:02:00;6.10;;;2.67;;
54917;SDS011;40818;50.562;7.454;2024-02-26T22:12:06;4.03;;;1.58;;
54917;SDS011;40818;50.562;7.454;2024-02-26T22:22:10;7.07;;;2.47;;
54917;SDS011;40818;50.562;7.454;2024-02-26T22:32:16;13.50;;;3.58;;
54917;SDS011;40818;50.562;7.454;2024-02-26T22:42:19;5.05;;;2.05;;
54917;SDS011;40818;50.562;7.454;2024-02-26T22:52:26;7.47;;;2.38;;
54917;SDS011;40818;50.562;7.454;2024-02-26T23:02:29;11.23;;;4.28;;
54917;SDS011;40818;50.562;7.454;2024-02-26T23:12:35;6.78;;;2.03;;
54917;SDS011;40818;50.562;7.454;2024-02-26T23:22:40;6.45;;;2.10;;
54917;SDS011;40818;50.562;7.454;2024-02-26T23:32:48;6.38;;;2.28;;
54917;SDS011;40818;50.562;7.454;2024-02-26T23:42:51;6.40;;;2.08;;
54917;SDS011;40818;50.562;7.454;2024-02-26T23:52:57;8.50;;;2.28;;
